Aeroporto :
LOGIN :

Iscrizione | Disclaimer

   EN    FR    IT 

 










Sommario :    VFR   VFR Marginale   IFR   IFR Intensivo   IFR Molto Intensivo
Visibilità : 
Base nubi : 
>= 8 km
>= 3000ft
5 / 8 km
1000 / 3000 ft
1500m / 5 km
500 / 1000 ft
800 / 1500m
200 / 500 ft
< 800m
< 200 ft
Simboli :   Temporali  Nebbia  Neve Forte  Precipitazioni Forti  Vento > 20 kt
SIGMETs :   Varie  Temporali  Ghiacco  Turbolenza  Onda orograficha  Ceneri Vulcaniche







- Altitudine del aeroporto : 93 ft
- Codice IATA : XRY


LEJR - Jerez

ULTIMO METAR :
  • 190130Z AUTO 02003KT 3700 -RA BR BKN034/// 08/08 Q1020

METARs OBSOLETI :
  • 190100Z AUTO VRB02KT 8000 RA BKN039/// BKN046/// OVC050/// 09/08 Q1020
  • 190030Z AUTO VRB02KT 9999 -RA SCT033/// SCT040/// OVC046/// 09/08 Q1020
  • 190000Z AUTO 36002KT 9999 -RA BKN036/// OVC042/// 09/08 Q1021
  • 182330Z AUTO 08003KT 030V090 9999 -RA BKN035/// OVC044/// 10/07 Q1021
  • 182300Z AUTO 08004KT 9999 OVC044 OVC050 10/06 Q1021

TAF TAF LEJR
Valido dal 19 a 00 ore il 20 a 00 ore UTC


182300Z 1900/1924 VRB03KT 9999 SCT025 SCT040 TX15/1915Z TN08/1903Z
TEMPO 1902/1909 4000 -RA BR BKN014
PROB40
TEMPO 1918/1924 3000 RA BKN014
BECMG 1919/1922 27010KT
Nessun NOTAM noto per questo aeroporto.



MetMap, La meteo Aeronautica in un colpo d'occhio ! - Copyright ORBIFLY Dicembre 2007 - Disclaimer

ORBIFLY MET'MAP TEAM :

Programmazione e sviluppo : Alexandra Zaïnal
Concezione e sviluppo : Baudouin d'Aumeries
Co-Programmazione e sviluppo : Marc-Olivier Méhu
Supporto tecnico e logistico : Manuel Goepfert
Aiuto per la traduzione : Arnaldo La Scala

Contatto : metmap@orbifly.com




FONTI E CREDITI :

   NOAA